Saturday, January 20, 2018, 3:08 PM GMT
Back to Local

CWSS, St. Stephen, N. B.

Location: , , Canada Lat: 45.217
Local Time: 3:08 PM GMT (15:08 GMT) Lon: -67.25
Time Zone: GMT Elev: 85 ft

Show me the last for .
Show Decoded

2018-01-20 14:00 METAR CWSS 201400Z AUTO 00000KT M01/M03 RMK AO1 SOG 07 6029 SLP992 T10141028 =
2018-01-20 13:00 METAR CWSS 201300Z AUTO 14002KT M01/M03 RMK AO1 SOG 07 6041 SLP999 T10121028 =
2018-01-20 12:00 METAR CWSS 201200Z AUTO 18003KT M01/M03 RMK AO1 SOG 07 6041 SLP013 T10141033 =
2018-01-20 11:00 METAR CWSS 201100Z AUTO 18004KT M02/M04 RMK AO1 SOG 08 8043 SLP021 T10181038 =
2018-01-20 10:00 METAR CWSS 201000Z AUTO 18004KT M02/M04 RMK AO1 SOG 08 8035 SLP040 T10231041 =
2018-01-20 09:00 METAR CWSS 200900Z AUTO 18001KT M05/M06 RMK AO1 SOG 08 8029 SLP054 T10511059 =
2018-01-20 08:00 METAR CWSS 200800Z AUTO 00000KT M06/M07 RMK AO1 SOG 08 6036 SLP064 T10621071 =
2018-01-20 07:00 METAR CWSS 200700Z AUTO 00000KT M07/M08 RMK AO1 SOG 08 8027 SLP075 T10721082 =
2018-01-20 06:00 METAR CWSS 200600Z AUTO 18001KT M08/M09 RMK AO1 SOG 08 8031 SLP083 T10821091 =
2018-01-20 05:00 METAR CWSS 200500Z AUTO 00000KT M09/M10 RMK AO1 SOG 08 8014 SLP100 T10911101 =
2018-01-20 04:00 METAR CWSS 200400Z AUTO 00000KT M11/M12 RMK AO1 SOG 09 8011 SLP102 T11111121 =
2018-01-20 03:00 METAR CWSS 200300Z AUTO 00000KT M14/M15 RMK AO1 SOG 08 6003 SLP115 T11371150 =
2018-01-20 02:00 METAR CWSS 200200Z AUTO 00000KT M13/M14 RMK AO1 SOG 08 5003 SLP115 T11261139 =
2018-01-20 01:00 METAR CWSS 200100Z AUTO 00000KT M12/M13 RMK AO1 SOG 08 8007 SLP114 T11151127 =
2018-01-20 00:00 METAR CWSS 200000Z AUTO 00000KT M10/M11 RMK AO1 SOG 08 6003 SLP118 T11021113 =
2018-01-19 23:00 METAR CWSS 192300Z AUTO 00000KT M08/M09 RMK AO1 SOG 08 8004 SLP118 T10811093 =
2018-01-19 22:00 METAR CWSS 192200Z AUTO 18003KT M06/M07 RMK AO1 SOG 08 1001 SLP120 T10571072 =
2018-01-19 21:00 METAR CWSS 192100Z AUTO 22003KT M03/M06 RMK AO1 SOG 09 0001 SLP121 T10321061 =
2018-01-19 20:00 METAR CWSS 192000Z AUTO 26003KT M03/M07 RMK AO1 SOG 09 5004 SLP122 T10301067 =
2018-01-19 19:00 METAR CWSS 191900Z AUTO 23003KT M03/M07 RMK AO1 SOG 09 6014 SLP120 T10341072 =
2018-01-19 18:00 METAR CWSS 191800Z AUTO 20001KT M03/M08 RMK AO1 SOG 09 8016 SLP119 T10251079 =
2018-01-19 17:00 METAR CWSS 191700Z AUTO 24002KT M04/M08 RMK AO1 SOG 09 8008 SLP125 T10441075 =
2018-01-19 16:00 METAR CWSS 191600Z AUTO 22003KT M06/M08 RMK AO1 SOG 09 0007 SLP133 T10561075 =

Support USWX by starting your Amazon purchase here.